createdAt,value
2024-01-29T00:02:05.744Z,9.463087248322148
2024-01-29T00:05:25.877Z,8.375838926174497
2024-01-29T00:08:46.469Z,8.798657718120806
2024-01-29T00:12:06.537Z,8.677852348993289
2024-01-29T00:15:28.270Z,9.140939597315436
2024-01-29T00:18:48.228Z,8.140939597315436
2024-01-29T00:22:08.505Z,8.912751677852349
2024-01-29T00:25:29.010Z,9.033557046979865
2024-01-29T00:28:48.808Z,8.36241610738255
2024-01-29T00:32:09.562Z,7.959731543624161
2024-01-29T00:35:29.755Z,7.395973154362416
2024-01-29T00:38:49.806Z,7.738255033557047
2024-01-29T00:42:21.953Z,8.429530201342281
2024-01-29T00:45:42.594Z,7.577181208053691
2024-01-29T00:51:26.264Z,8.161073825503356
2024-01-29T00:54:46.734Z,8.241610738255034
2024-01-29T00:58:06.866Z,8.805369127516778
2024-01-29T01:01:28.670Z,8.751677852348994
2024-01-29T01:04:49.213Z,7.1879194630872485
2024-01-29T01:08:08.489Z,8.503355704697986
2024-01-29T01:11:28.775Z,8.10738255033557
2024-01-29T01:14:48.730Z,7.74496644295302
2024-01-29T01:19:30.477Z,7.906040268456376
2024-01-29T01:22:52.073Z,7.4630872483221475
2024-01-29T01:26:12.717Z,8.288590604026846
2024-01-29T01:29:32.707Z,7.510067114093959
2024-01-29T01:32:52.731Z,7.040268456375839
2024-01-29T01:36:13.406Z,7.657718120805369
2024-01-29T01:39:33.529Z,10.020134228187919
2024-01-29T01:42:54.135Z,8.953020134228188
2024-01-29T01:46:15.244Z,8.25503355704698
2024-01-29T01:49:36.418Z,9.53020134228188
2024-01-29T01:52:56.716Z,10.302013422818792
2024-01-29T01:56:17.992Z,8.711409395973154
2024-01-29T01:59:38.272Z,8.161073825503356
2024-01-29T02:02:58.458Z,8.550335570469798
2024-01-29T02:06:18.521Z,8.167785234899329
2024-01-29T02:09:38.688Z,7.724832214765101
2024-01-29T02:12:58.232Z,7.395973154362416
2024-01-29T02:16:18.685Z,9.161073825503356
2024-01-29T02:21:49.314Z,9.838926174496644
2024-01-29T02:25:09.348Z,9.348993288590604
2024-01-29T02:28:31.101Z,9.0
2024-01-29T02:31:51.064Z,9.348993288590604
2024-01-29T02:35:11.934Z,9.697986577181208
2024-01-29T02:39:36.741Z,9.771812080536913
2024-01-29T02:42:57.191Z,9.570469798657719
2024-01-29T02:46:17.923Z,8.751677852348994
2024-01-29T02:54:38.878Z,9.060402684563758
2024-01-29T02:57:59.833Z,7.785234899328859
2024-01-29T03:01:20.860Z,8.436241610738255
2024-01-29T03:04:40.737Z,7.724832214765101
2024-01-29T03:08:00.642Z,8.0
2024-01-29T03:11:21.726Z,8.342281879194632
2024-01-29T03:14:42.184Z,7.630872483221476
2024-01-29T03:18:02.972Z,6.906040268456376
2024-01-29T03:21:24.522Z,6.798657718120805
2024-01-29T03:24:45.677Z,5.798657718120805
2024-01-29T03:28:05.389Z,6.140939597315437
2024-01-29T03:31:25.572Z,6.731543624161074
2024-01-29T03:34:45.942Z,6.738255033557047
2024-01-29T03:38:06.743Z,6.959731543624161
2024-01-29T03:41:27.394Z,6.228187919463087
2024-01-29T03:44:48.422Z,6.590604026845638
2024-01-29T03:49:27.161Z,6.402684563758389
2024-01-29T03:52:48.170Z,7.0
2024-01-29T03:56:08.998Z,5.97986577181208
2024-01-29T04:00:17.807Z,6.771812080536913
2024-01-29T04:03:38.187Z,7.10738255033557
2024-01-29T04:06:59.916Z,7.0
2024-01-29T04:10:20.544Z,7.140939597315437
2024-01-29T04:13:41.431Z,6.74496644295302
2024-01-29T04:17:02.116Z,6.422818791946309
2024-01-29T04:20:22.793Z,6.550335570469799
2024-01-29T04:23:42.238Z,6.261744966442953
2024-01-29T04:27:02.819Z,6.510067114093959
2024-01-29T04:30:23.957Z,6.8120805369127515
2024-01-29T04:33:44.489Z,7.3355704697986575
2024-01-29T04:37:05.531Z,7.697986577181208
2024-01-29T04:40:27.048Z,7.697986577181208
2024-01-29T04:43:48.468Z,7.181208053691275
2024-01-29T04:47:08.797Z,6.97986577181208
2024-01-29T04:50:30.109Z,7.0
2024-01-29T04:53:50.692Z,6.543624161073826
2024-01-29T04:57:11.217Z,7.241610738255034
2024-01-29T05:00:31.749Z,7.859060402684563
2024-01-29T05:03:51.769Z,7.604026845637584
2024-01-29T05:07:12.817Z,7.214765100671141
2024-01-29T05:10:33.464Z,7.818791946308725
2024-01-29T05:13:53.935Z,7.785234899328859
2024-01-29T05:19:40.678Z,6.060402684563758
2024-01-29T05:23:01.005Z,6.275167785234899
2024-01-29T05:26:21.682Z,5.89261744966443
2024-01-29T05:29:41.951Z,6.677852348993288
2024-01-29T05:33:31.609Z,7.087248322147651
2024-01-29T05:36:51.494Z,5.993288590604027
2024-01-29T05:40:12.333Z,5.939597315436242
2024-01-29T05:43:33.592Z,6.409395973154362
2024-01-29T05:46:53.911Z,5.74496644295302
2024-01-29T05:50:15.382Z,6.241610738255034
2024-01-29T05:54:03.269Z,5.805369127516778
2024-01-29T05:57:24.540Z,6.167785234899329
2024-01-29T06:00:45.229Z,6.6644295302013425
2024-01-29T06:04:05.828Z,6.5369127516778525
2024-01-29T06:07:27.552Z,6.604026845637584
2024-01-29T06:10:49.410Z,5.778523489932886
2024-01-29T06:14:10.211Z,6.624161073825503
2024-01-29T06:19:28.746Z,6.6644295302013425
2024-01-29T06:22:49.552Z,6.12751677852349
2024-01-29T06:26:10.216Z,6.073825503355705
2024-01-29T06:30:59.929Z,6.6644295302013425
2024-01-29T06:34:20.658Z,6.208053691275167
2024-01-29T06:39:40.865Z,6.167785234899329
2024-01-29T06:45:27.446Z,6.557046979865772
2024-01-29T06:48:48.635Z,6.583892617449664
2024-01-29T06:52:12.527Z,7.033557046979865
2024-01-29T06:55:36.926Z,6.899328859060403
2024-01-29T06:58:57.692Z,6.348993288590604
2024-01-29T07:02:18.885Z,6.073825503355705
2024-01-29T07:05:39.339Z,7.114093959731544
2024-01-29T07:09:00.464Z,7.6375838926174495
2024-01-29T07:12:21.937Z,9.174496644295303
2024-01-29T07:15:49.175Z,8.10738255033557
2024-01-29T07:20:46.357Z,7.134228187919463
2024-01-29T07:24:06.936Z,7.798657718120805
2024-01-29T07:27:27.384Z,7.953020134228188
2024-01-29T07:30:47.892Z,7.5369127516778525
2024-01-29T07:34:08.635Z,7.214765100671141
2024-01-29T07:37:29.496Z,9.208053691275168
2024-01-29T07:40:49.237Z,9.577181208053691
2024-01-29T07:44:51.957Z,8.020134228187919
2024-01-29T07:50:22.472Z,7.87248322147651
2024-01-29T07:53:42.752Z,7.342281879194631
2024-01-29T07:57:27.481Z,8.181208053691275
2024-01-29T08:00:47.884Z,7.624161073825503
2024-01-29T08:04:08.243Z,8.463087248322148
2024-01-29T08:07:28.983Z,7.10738255033557
2024-01-29T08:10:49.868Z,7.429530201342282
2024-01-29T08:14:09.819Z,7.7114093959731544
2024-01-29T08:19:18.030Z,7.328859060402684
2024-01-29T08:22:40.619Z,8.013422818791947
2024-01-29T08:26:00.888Z,7.89261744966443
2024-01-29T08:29:21.749Z,8.0
2024-01-29T08:32:41.653Z,7.993288590604027
2024-01-29T08:38:20.414Z,8.187919463087248
2024-01-29T08:41:40.725Z,8.25503355704698
2024-01-29T08:45:01.092Z,7.89261744966443
2024-01-29T08:48:22.068Z,8.516778523489933
2024-01-29T08:51:42.277Z,8.95973154362416
2024-01-29T08:55:02.498Z,7.939597315436242
2024-01-29T08:58:25.412Z,9.100671140939598
2024-01-29T09:04:14.393Z,8.838926174496644
2024-01-29T09:07:34.788Z,8.557046979865772
2024-01-29T09:12:52.789Z,9.771812080536913
2024-01-29T09:17:43.595Z,10.429530201342281
2024-01-29T09:21:03.533Z,10.449664429530202
2024-01-29T09:24:23.705Z,10.026845637583893
2024-01-29T09:27:44.696Z,9.429530201342281
2024-01-29T09:31:05.093Z,8.946308724832214
2024-01-29T09:34:26.581Z,8.06711409395973
2024-01-29T09:47:05.652Z,9.416107382550335
2024-01-29T09:50:26.259Z,10.181208053691275
2024-01-29T09:53:46.469Z,9.416107382550335
2024-01-29T09:57:06.982Z,9.268456375838927
2024-01-29T10:00:29.908Z,10.134228187919463
2024-01-29T10:03:51.376Z,9.751677852348994
2024-01-29T10:07:11.677Z,9.583892617449665
2024-01-29T10:10:32.732Z,9.906040268456376
2024-01-29T10:13:53.006Z,9.342281879194632
2024-01-29T10:17:13.846Z,8.818791946308725
2024-01-29T10:23:08.692Z,8.671140939597315
2024-01-29T10:26:29.864Z,9.355704697986576
2024-01-29T10:29:50.079Z,9.899328859060402
2024-01-29T10:33:10.855Z,9.832214765100671
2024-01-29T10:38:00.109Z,8.523489932885907
2024-01-29T10:41:20.903Z,9.496644295302014
2024-01-29T10:44:41.070Z,9.295302013422818
2024-01-29T10:48:01.266Z,9.85234899328859
2024-01-29T10:51:21.274Z,9.570469798657719
2024-01-29T10:54:41.883Z,11.134228187919463
2024-01-29T10:58:03.532Z,10.134228187919463
2024-01-29T11:02:03.807Z,11.114093959731544
2024-01-29T11:05:25.767Z,11.120805369127517
2024-01-29T11:08:46.511Z,10.838926174496644
2024-01-29T11:12:06.802Z,10.167785234899329
2024-01-29T11:15:27.600Z,9.758389261744966
2024-01-29T11:19:03.550Z,10.234899328859061
2024-01-29T11:24:39.020Z,10.295302013422818
2024-01-29T11:27:59.083Z,10.14765100671141
2024-01-29T11:35:54.861Z,11.248322147651006
2024-01-29T11:39:14.644Z,11.268456375838927
2024-01-29T11:42:35.143Z,12.40268456375839
2024-01-29T11:45:54.732Z,13.664429530201343
2024-01-29T11:49:14.920Z,13.85234899328859
2024-01-29T11:52:35.380Z,14.14765100671141
2024-01-29T11:55:55.665Z,13.536912751677852
2024-01-29T11:59:46.698Z,14.429530201342281
2024-01-29T12:03:07.562Z,14.95973154362416
2024-01-29T12:06:28.691Z,14.577181208053691
2024-01-29T12:09:48.148Z,14.261744966442953
2024-01-29T12:13:08.693Z,14.429530201342281
2024-01-29T12:17:06.415Z,13.89261744966443
2024-01-29T12:20:26.394Z,14.51006711409396
2024-01-29T12:23:52.358Z,15.342281879194632
2024-01-29T12:27:13.127Z,14.906040268456376
2024-01-29T12:30:33.080Z,15.268456375838927
2024-01-29T12:33:53.599Z,16.073825503355703
2024-01-29T12:37:14.159Z,18.08724832214765
2024-01-29T12:40:34.141Z,16.664429530201343
2024-01-29T12:43:54.020Z,15.335570469798657
2024-01-29T12:47:14.735Z,15.604026845637584
2024-01-29T12:50:34.618Z,15.704697986577182
2024-01-29T12:53:55.232Z,15.926174496644295
2024-01-29T13:00:36.413Z,16.140939597315437
2024-01-29T13:03:56.438Z,17.436241610738254
2024-01-29T13:07:18.441Z,16.20805369127517
2024-01-29T13:10:38.709Z,16.758389261744966
2024-01-29T13:13:59.831Z,16.36241610738255
2024-01-29T13:17:20.242Z,16.201342281879196
2024-01-29T13:21:24.415Z,15.778523489932885
2024-01-29T13:24:45.008Z,17.671140939597315
2024-01-29T13:30:03.463Z,16.899328859060404
2024-01-29T13:33:24.568Z,18.093959731543624
2024-01-29T13:36:45.242Z,16.046979865771814
2024-01-29T13:40:05.637Z,16.651006711409394
2024-01-29T13:43:26.525Z,16.604026845637584
2024-01-29T13:46:47.131Z,16.79194630872483
2024-01-29T13:50:07.500Z,16.76510067114094
2024-01-29T13:53:28.601Z,19.268456375838927
2024-01-29T13:56:48.893Z,18.476510067114095
2024-01-29T14:00:09.282Z,16.644295302013422
2024-01-29T14:03:30.358Z,16.38255033557047
2024-01-29T14:06:50.668Z,17.93288590604027
2024-01-29T14:10:10.924Z,20.70469798657718
2024-01-29T14:13:31.564Z,19.76510067114094
2024-01-29T14:16:51.892Z,19.375838926174495
2024-01-29T14:20:12.766Z,17.120805369127517
2024-01-29T14:23:33.741Z,19.74496644295302
2024-01-29T14:26:54.017Z,19.751677852348994
2024-01-29T14:30:14.765Z,20.483221476510067
2024-01-29T14:42:13.414Z,21.496644295302012
2024-01-29T14:45:34.340Z,21.91946308724832
2024-01-29T14:48:54.458Z,21.409395973154364
2024-01-29T14:52:14.965Z,22.711409395973153
2024-01-29T14:55:36.476Z,21.684563758389263
2024-01-29T14:58:56.964Z,22.395973154362416
2024-01-29T15:02:17.133Z,23.154362416107382
2024-01-29T15:05:38.532Z,23.42953020134228
2024-01-29T15:08:58.584Z,23.697986577181208
2024-01-29T15:15:06.685Z,24.677852348993287
2024-01-29T15:18:26.942Z,22.93959731543624
2024-01-29T15:21:47.150Z,21.48993288590604
2024-01-29T15:25:07.085Z,22.42281879194631
2024-01-29T15:28:27.912Z,23.261744966442954
2024-01-29T15:31:48.920Z,24.946308724832214
2024-01-29T15:35:09.371Z,24.248322147651006
2024-01-29T15:38:30.290Z,25.187919463087248
2024-01-29T15:46:42.022Z,22.926174496644297
2024-01-29T15:50:02.627Z,25.63758389261745
2024-01-29T15:53:23.571Z,25.107382550335572
2024-01-29T15:56:43.934Z,26.033557046979865
2024-01-29T16:02:29.129Z,34.442953020134226
2024-01-29T16:05:49.373Z,30.29530201342282
2024-01-29T16:09:59.320Z,30.42281879194631
2024-01-29T16:13:20.168Z,29.19463087248322
2024-01-29T16:16:41.267Z,29.590604026845636
2024-01-29T16:20:01.555Z,29.516778523489933
2024-01-29T16:27:59.061Z,29.335570469798657
2024-01-29T16:32:21.617Z,36.61744966442953
2024-01-29T16:36:46.626Z,38.4496644295302
2024-01-29T16:40:24.638Z,36.02684563758389
2024-01-29T16:43:45.697Z,38.08724832214765
2024-01-29T16:47:05.978Z,34.48322147651007
2024-01-29T16:50:26.651Z,36.83221476510067
2024-01-29T16:53:47.195Z,36.375838926174495
2024-01-29T16:57:07.780Z,32.75167785234899
2024-01-29T17:00:28.762Z,30.798657718120804
2024-01-29T17:03:48.912Z,31.107382550335572
2024-01-29T17:09:30.645Z,32.32214765100671
2024-01-29T17:15:10.477Z,30.97986577181208
2024-01-29T17:20:48.968Z,31.08724832214765
2024-01-29T17:24:22.964Z,32.14093959731544
2024-01-29T17:27:44.147Z,32.288590604026844
2024-01-29T17:31:04.152Z,31.758389261744966
2024-01-29T17:34:25.314Z,31.02013422818792
2024-01-29T17:37:46.208Z,30.107382550335572
2024-01-29T17:41:06.199Z,31.302013422818792
2024-01-29T17:44:26.806Z,30.86577181208054
2024-01-29T17:47:46.625Z,31.369127516778523
2024-01-29T17:51:06.657Z,32.22147651006711
2024-01-29T17:54:27.749Z,31.825503355704697
2024-01-29T17:57:48.088Z,30.355704697986578
2024-01-29T18:01:09.180Z,32.355704697986575
2024-01-29T18:04:30.167Z,30.436241610738254
2024-01-29T18:07:51.113Z,29.899328859060404
2024-01-29T18:11:11.782Z,29.885906040268456
2024-01-29T18:14:33.168Z,29.651006711409394
2024-01-29T18:17:53.667Z,31.248322147651006
2024-01-29T18:22:59.085Z,30.469798657718123
2024-01-29T18:26:20.181Z,32.04697986577181
2024-01-29T18:29:40.628Z,32.29530201342282
2024-01-29T18:33:01.399Z,33.65771812080537
2024-01-29T18:36:21.896Z,35.053691275167786
2024-01-29T18:40:06.108Z,33.355704697986575
2024-01-29T18:43:27.112Z,33.20134228187919
2024-01-29T18:46:48.000Z,33.939597315436245
2024-01-29T18:50:08.988Z,33.47651006711409
2024-01-29T18:54:22.043Z,32.92617449664429
2024-01-29T18:59:18.390Z,35.7248322147651
2024-01-29T19:05:43.007Z,39.355704697986575
2024-01-29T19:09:03.351Z,38.97986577181208
2024-01-29T19:12:24.316Z,44.013422818791945
2024-01-29T19:15:44.997Z,45.10738255033557
2024-01-29T19:19:05.417Z,39.12751677852349
2024-01-29T19:22:26.998Z,36.20805369127517
2024-01-29T19:25:46.920Z,39.81208053691275
2024-01-29T19:29:06.899Z,41.51006711409396
2024-01-29T19:32:27.748Z,38.919463087248324
2024-01-29T19:35:47.528Z,38.73154362416108
2024-01-29T19:39:07.598Z,39.02013422818792
2024-01-29T19:45:48.360Z,36.87248322147651
2024-01-29T19:49:08.294Z,39.20805369127517
2024-01-29T19:52:30.203Z,40.899328859060404
2024-01-29T19:56:10.416Z,41.47651006711409
2024-01-29T19:59:30.840Z,39.630872483221474
2024-01-29T20:02:50.849Z,40.395973154362416
2024-01-29T20:06:10.894Z,40.147651006711406
2024-01-29T20:09:32.007Z,39.75167785234899
2024-01-29T20:12:52.049Z,41.4496644295302
2024-01-29T20:16:12.773Z,39.89261744966443
2024-01-29T20:19:33.620Z,40.66442953020134
2024-01-29T20:22:54.525Z,41.58389261744966
2024-01-29T20:26:15.973Z,41.76510067114094
2024-01-29T20:29:36.573Z,41.24832214765101
2024-01-29T20:34:36.506Z,42.75167785234899
2024-01-29T20:37:57.195Z,43.49664429530201
2024-01-29T20:42:21.402Z,44.59731543624161
2024-01-29T20:46:57.804Z,44.87919463087248
2024-01-29T20:50:18.516Z,48.50335570469799
2024-01-29T20:53:39.670Z,48.624161073825505
2024-01-29T21:00:06.810Z,47.006711409395976
2024-01-29T21:03:27.144Z,46.20805369127517
2024-01-29T21:06:46.890Z,45.33557046979866
2024-01-29T21:13:23.232Z,45.348993288590606
2024-01-29T21:16:44.047Z,45.20805369127517
2024-01-29T21:20:05.159Z,45.261744966442954
2024-01-29T21:23:25.632Z,46.758389261744966
2024-01-29T21:26:46.512Z,45.63758389261745
2024-01-29T21:30:07.068Z,48.080536912751676
2024-01-29T21:33:27.953Z,44.87919463087248
2024-01-29T21:36:49.053Z,46.29530201342282
2024-01-29T21:40:09.550Z,47.34228187919463
2024-01-29T21:44:09.774Z,47.61744966442953
2024-01-29T21:47:30.715Z,47.65771812080537
2024-01-29T21:50:51.853Z,47.80536912751678
2024-01-29T21:54:12.946Z,48.691275167785236
2024-01-29T21:57:33.611Z,47.624161073825505
2024-01-29T22:00:55.408Z,47.66442953020134
2024-01-29T22:04:17.070Z,48.33557046979866
2024-01-29T22:07:37.411Z,48.966442953020135
2024-01-29T22:10:57.818Z,49.30201342281879
2024-01-29T22:14:18.492Z,50.29530201342282
2024-01-29T22:18:26.668Z,49.58389261744966
2024-01-29T22:21:46.931Z,49.70469798657718
2024-01-29T22:25:07.236Z,47.77852348993289
2024-01-29T22:28:28.026Z,48.73154362416108
2024-01-29T22:31:48.567Z,48.261744966442954
2024-01-29T22:35:08.997Z,48.060402684563755
2024-01-29T22:38:29.739Z,51.92617449664429
2024-01-29T22:41:49.983Z,51.45637583892618
2024-01-29T22:45:10.671Z,52.147651006711406
2024-01-29T22:48:31.126Z,49.422818791946305
2024-01-29T22:51:52.093Z,49.7248322147651
2024-01-29T22:55:12.858Z,46.5503355704698
2024-01-29T22:58:33.580Z,50.147651006711406
2024-01-29T23:01:54.111Z,49.97315436241611
2024-01-29T23:05:14.700Z,52.09395973154363
2024-01-29T23:09:10.606Z,51.281879194630875
2024-01-29T23:12:30.864Z,48.06711409395973
2024-01-29T23:15:51.458Z,47.053691275167786
2024-01-29T23:19:22.901Z,46.718120805369125
2024-01-29T23:22:43.237Z,47.02013422818792
2024-01-29T23:27:08.483Z,45.624161073825505
2024-01-29T23:31:51.122Z,46.375838926174495
2024-01-29T23:35:11.207Z,47.013422818791945
2024-01-29T23:44:14.044Z,46.241610738255034
2024-01-29T23:47:34.613Z,44.95973154362416
2024-01-29T23:50:54.800Z,45.946308724832214
2024-01-29T23:54:16.328Z,45.75167785234899
2024-01-29T23:57:36.552Z,44.711409395973156
